createdAt,value
2023-01-15T00:01:32.239Z,9.70
2023-01-15T00:03:59.898Z,9.80
2023-01-15T00:06:28.146Z,9.80
2023-01-15T00:08:55.617Z,9.80
2023-01-15T00:11:23.375Z,9.80
2023-01-15T00:13:50.859Z,9.70
2023-01-15T00:16:21.502Z,9.80
2023-01-15T00:19:00.770Z,9.70
2023-01-15T00:21:29.102Z,9.70
2023-01-15T00:24:14.769Z,9.70
2023-01-15T00:27:00.249Z,9.70
2023-01-15T00:29:27.392Z,9.80
2023-01-15T00:31:57.914Z,9.70
2023-01-15T00:34:26.089Z,9.80
2023-01-15T00:36:53.085Z,9.80
2023-01-15T00:39:20.495Z,9.80
2023-01-15T00:41:47.766Z,9.80
2023-01-15T00:44:14.607Z,9.80
2023-01-15T00:46:41.679Z,9.80
2023-01-15T00:49:08.595Z,9.80
2023-01-15T00:51:35.858Z,9.80
2023-01-15T00:54:02.894Z,9.90
2023-01-15T00:56:29.864Z,9.90
2023-01-15T00:58:57.745Z,9.80
2023-01-15T01:01:24.687Z,9.80
2023-01-15T01:03:53.022Z,9.90
2023-01-15T01:06:21.068Z,9.90
2023-01-15T01:08:48.968Z,9.90
2023-01-15T01:11:18.655Z,9.90
2023-01-15T01:13:46.033Z,9.90
2023-01-15T01:16:30.769Z,9.90
2023-01-15T01:18:59.670Z,9.90
2023-01-15T01:21:27.328Z,10.00
2023-01-15T01:23:54.249Z,10.00
2023-01-15T01:26:21.370Z,10.00
2023-01-15T01:28:52.730Z,10.00
2023-01-15T01:31:20.086Z,10.10
2023-01-15T01:33:49.941Z,10.00
2023-01-15T01:36:17.024Z,10.10
2023-01-15T01:38:43.798Z,10.10
2023-01-15T01:41:10.468Z,10.10
2023-01-15T01:43:52.390Z,10.20
2023-01-15T01:46:19.175Z,10.20
2023-01-15T01:48:47.341Z,10.20
2023-01-15T01:51:14.477Z,10.10
2023-01-15T01:53:41.168Z,10.20
2023-01-15T01:56:09.804Z,10.10
2023-01-15T01:58:36.662Z,10.10
2023-01-15T02:01:03.868Z,10.10
2023-01-15T02:03:36.820Z,10.10
2023-01-15T02:06:07.458Z,10.10
2023-01-15T02:08:35.194Z,10.10
2023-01-15T02:11:02.289Z,10.00
2023-01-15T02:13:51.067Z,10.00
2023-01-15T02:16:43.319Z,10.00
2023-01-15T02:19:49.360Z,10.10
2023-01-15T02:22:30.092Z,10.00
2023-01-15T02:25:22.196Z,10.00
2023-01-15T02:27:55.452Z,10.00
2023-01-15T02:30:30.487Z,10.00
2023-01-15T02:33:08.221Z,10.00
2023-01-15T02:35:41.590Z,10.00
2023-01-15T02:38:12.457Z,10.00
2023-01-15T02:40:42.241Z,10.00
2023-01-15T02:43:10.979Z,10.10
2023-01-15T02:45:42.396Z,10.10
2023-01-15T02:48:13.391Z,10.00
2023-01-15T02:50:48.455Z,10.00
2023-01-15T02:53:22.146Z,10.10
2023-01-15T02:55:52.105Z,10.10
2023-01-15T02:58:23.559Z,10.10
2023-01-15T03:00:54.787Z,10.10
2023-01-15T03:03:36.241Z,10.10
2023-01-15T03:06:19.243Z,10.10
2023-01-15T03:08:46.455Z,10.10
2023-01-15T03:11:15.822Z,10.10
2023-01-15T03:13:48.731Z,10.20
2023-01-15T03:16:55.974Z,10.20
2023-01-15T03:19:48.155Z,10.20
2023-01-15T03:22:24.096Z,10.20
2023-01-15T03:24:55.491Z,10.20
2023-01-15T03:27:22.747Z,10.20
2023-01-15T03:29:53.706Z,10.20
2023-01-15T03:32:22.309Z,10.20
2023-01-15T03:34:56.473Z,10.20
2023-01-15T03:37:25.818Z,10.20
2023-01-15T03:39:53.559Z,10.10
2023-01-15T03:43:14.196Z,10.10
2023-01-15T03:45:42.620Z,10.10
2023-01-15T03:48:18.082Z,10.10
2023-01-15T03:51:04.208Z,10.10
2023-01-15T03:53:37.361Z,10.10
2023-01-15T03:56:14.735Z,10.10
2023-01-15T03:58:46.039Z,10.10
2023-01-15T04:01:20.552Z,10.10
2023-01-15T04:03:49.994Z,10.10
2023-01-15T04:06:17.930Z,10.10
2023-01-15T04:08:47.521Z,10.00
2023-01-15T04:11:24.565Z,9.90
2023-01-15T04:13:51.686Z,9.80
2023-01-15T04:16:26.290Z,9.70
2023-01-15T04:18:53.836Z,9.70
2023-01-15T04:21:21.170Z,9.70
2023-01-15T04:23:48.051Z,9.60
2023-01-15T04:26:15.135Z,9.60
2023-01-15T04:28:41.792Z,9.50
2023-01-15T04:31:09.075Z,9.50
2023-01-15T04:33:35.822Z,9.40
2023-01-15T04:36:04.166Z,9.50
2023-01-15T04:38:30.944Z,9.40
2023-01-15T04:41:20.457Z,9.50
2023-01-15T04:44:06.133Z,9.40
2023-01-15T04:46:36.722Z,9.30
2023-01-15T04:49:05.085Z,9.10
2023-01-15T04:51:31.919Z,9.00
2023-01-15T04:53:59.342Z,8.90
2023-01-15T04:56:26.013Z,8.90
2023-01-15T04:58:52.673Z,8.90
2023-01-15T05:01:19.571Z,8.90
2023-01-15T05:03:46.309Z,8.80
2023-01-15T05:06:14.732Z,8.70
2023-01-15T05:08:42.065Z,8.80
2023-01-15T05:11:08.851Z,8.70
2023-01-15T05:13:35.703Z,8.70
2023-01-15T05:16:14.805Z,8.60
2023-01-15T05:18:43.018Z,8.50
2023-01-15T05:21:25.468Z,8.50
2023-01-15T05:23:55.010Z,8.50
2023-01-15T05:26:22.411Z,8.50
2023-01-15T05:28:49.992Z,8.60
2023-01-15T05:31:19.404Z,8.50
2023-01-15T05:33:47.484Z,8.50
2023-01-15T05:36:20.483Z,8.50
2023-01-15T05:38:47.225Z,8.40
2023-01-15T05:41:35.477Z,8.10
2023-01-15T05:44:07.967Z,8.10
2023-01-15T05:46:36.312Z,8.20
2023-01-15T05:49:05.413Z,8.00
2023-01-15T05:51:32.130Z,8.10
2023-01-15T05:53:59.067Z,8.20
2023-01-15T05:56:25.992Z,8.00
2023-01-15T05:58:53.161Z,7.90
2023-01-15T06:01:19.924Z,8.00
2023-01-15T06:03:48.286Z,7.90
2023-01-15T06:06:16.747Z,7.80
2023-01-15T06:08:43.643Z,7.70
2023-01-15T06:11:11.292Z,7.50
2023-01-15T06:13:39.619Z,7.50
2023-01-15T06:16:07.446Z,7.40
2023-01-15T06:18:35.573Z,7.40
2023-01-15T06:21:20.720Z,7.30
2023-01-15T06:23:47.566Z,7.40
2023-01-15T06:26:18.216Z,7.40
2023-01-15T06:28:46.050Z,7.30
2023-01-15T06:31:15.291Z,7.30
2023-01-15T06:33:42.441Z,7.20
2023-01-15T06:36:12.526Z,7.20
2023-01-15T06:38:39.551Z,7.00
2023-01-15T06:41:27.521Z,6.90
2023-01-15T06:44:12.986Z,6.90
2023-01-15T06:47:06.866Z,7.00
2023-01-15T06:49:35.165Z,7.10
2023-01-15T06:52:02.606Z,6.90
2023-01-15T06:54:29.560Z,6.90
2023-01-15T06:56:56.275Z,6.90
2023-01-15T06:59:23.192Z,6.80
2023-01-15T07:01:49.911Z,6.80
2023-01-15T07:04:16.827Z,6.80
2023-01-15T07:06:43.569Z,6.60
2023-01-15T07:09:10.646Z,6.60
2023-01-15T07:11:49.481Z,6.60
2023-01-15T07:14:21.427Z,6.60
2023-01-15T07:16:48.143Z,6.70
2023-01-15T07:19:14.957Z,6.60
2023-01-15T07:21:42.065Z,6.60
2023-01-15T07:24:10.731Z,6.70
2023-01-15T07:26:38.177Z,6.60
2023-01-15T07:29:05.753Z,6.60
2023-01-15T07:31:32.876Z,6.60
2023-01-15T07:34:00.082Z,6.70
2023-01-15T07:36:27.071Z,6.60
2023-01-15T07:38:54.047Z,6.60
2023-01-15T07:41:39.261Z,6.60
2023-01-15T07:44:24.822Z,6.50
2023-01-15T07:47:10.279Z,6.50
2023-01-15T07:49:45.870Z,6.50
2023-01-15T07:52:19.832Z,6.40
2023-01-15T07:54:48.233Z,6.10
2023-01-15T07:57:17.894Z,6.20
2023-01-15T07:59:44.897Z,6.10
2023-01-15T08:02:13.021Z,6.10
2023-01-15T08:04:40.253Z,6.20
2023-01-15T08:07:08.111Z,6.30
2023-01-15T08:09:34.955Z,6.30
2023-01-15T08:12:21.537Z,6.20
2023-01-15T08:15:06.930Z,6.10
2023-01-15T08:17:35.028Z,6.10
2023-01-15T08:20:03.506Z,6.30
2023-01-15T08:22:30.153Z,6.40
2023-01-15T08:24:56.825Z,6.40
2023-01-15T08:27:23.568Z,6.20
2023-01-15T08:29:50.549Z,6.10
2023-01-15T08:32:17.261Z,6.00
2023-01-15T08:34:43.947Z,6.20
2023-01-15T08:37:11.002Z,6.10
2023-01-15T08:39:37.739Z,6.10
2023-01-15T08:42:04.616Z,6.20
2023-01-15T08:44:31.365Z,6.30
2023-01-15T08:46:58.023Z,6.70
2023-01-15T08:49:24.800Z,6.50
2023-01-15T08:51:54.444Z,6.30
2023-01-15T08:54:24.456Z,6.10
2023-01-15T08:56:51.507Z,6.20
2023-01-15T08:59:18.781Z,6.10
2023-01-15T09:01:45.630Z,6.30
2023-01-15T09:04:16.957Z,6.40
2023-01-15T09:06:44.603Z,6.40
2023-01-15T09:09:11.734Z,6.40
2023-01-15T09:11:42.838Z,6.30
2023-01-15T09:15:00.274Z,6.20
2023-01-15T09:16:58.574Z,6.00
2023-01-15T09:19:25.277Z,5.90
2023-01-15T09:21:51.957Z,6.00
2023-01-15T09:24:18.628Z,6.00
2023-01-15T09:26:45.414Z,6.10
2023-01-15T09:29:12.367Z,6.20
2023-01-15T09:31:39.109Z,6.00
2023-01-15T09:34:05.941Z,6.00
2023-01-15T09:36:35.498Z,6.60
2023-01-15T09:39:04.391Z,9.70
2023-01-15T09:42:00.544Z,10.20
2023-01-15T09:44:47.083Z,10.40
2023-01-15T09:47:20.743Z,10.90
2023-01-15T09:49:56.136Z,10.40
2023-01-15T09:52:50.606Z,10.60
2023-01-15T09:55:25.333Z,10.70
2023-01-15T09:57:55.396Z,10.80
2023-01-15T10:00:24.548Z,10.80
2023-01-15T10:02:59.072Z,11.00
2023-01-15T10:05:40.654Z,11.30
2023-01-15T10:08:16.137Z,11.50
2023-01-15T10:10:47.672Z,11.60
2023-01-15T10:13:21.418Z,11.70
2023-01-15T10:15:48.539Z,11.20
2023-01-15T10:18:21.885Z,11.20
2023-01-15T10:20:59.475Z,11.20
2023-01-15T10:23:51.718Z,11.50
2023-01-15T10:26:43.124Z,11.20
2023-01-15T10:29:19.793Z,11.20
2023-01-15T10:32:13.054Z,11.30
2023-01-15T10:35:12.226Z,11.40
2023-01-15T10:37:48.193Z,9.10
2023-01-15T10:40:15.030Z,8.10
2023-01-15T10:43:02.884Z,7.70
2023-01-15T10:45:41.998Z,7.30
2023-01-15T10:48:28.321Z,7.20
2023-01-15T10:50:56.874Z,7.00
2023-01-15T10:53:38.115Z,7.00
2023-01-15T10:56:14.088Z,7.00
2023-01-15T10:58:50.442Z,6.80
2023-01-15T11:01:21.715Z,6.80
2023-01-15T11:03:48.488Z,6.80
2023-01-15T11:06:20.714Z,7.00
2023-01-15T11:09:09.082Z,6.90
2023-01-15T11:12:00.354Z,6.50
2023-01-15T11:15:00.433Z,6.30
2023-01-15T11:17:50.975Z,6.10
2023-01-15T11:20:22.861Z,5.60
2023-01-15T11:22:50.140Z,5.60
2023-01-15T11:25:28.530Z,5.50
2023-01-15T11:27:55.694Z,5.50
2023-01-15T11:30:30.665Z,5.60
2023-01-15T11:32:59.017Z,5.60
2023-01-15T11:35:26.491Z,5.60
2023-01-15T11:38:14.812Z,5.60
2023-01-15T11:40:55.412Z,5.50
2023-01-15T11:43:42.751Z,5.70
2023-01-15T11:46:43.489Z,5.60
2023-01-15T11:49:30.046Z,5.80
2023-01-15T11:51:58.868Z,5.80
2023-01-15T11:54:26.376Z,5.80
2023-01-15T11:56:54.651Z,5.90
2023-01-15T11:59:22.246Z,5.70
2023-01-15T12:02:00.125Z,5.80
2023-01-15T12:04:37.721Z,5.80
2023-01-15T12:07:06.926Z,5.70
2023-01-15T12:09:49.330Z,5.70
2023-01-15T12:12:26.710Z,5.60
2023-01-15T12:15:15.907Z,5.60
2023-01-15T12:18:09.815Z,5.70
2023-01-15T12:20:36.431Z,5.80
2023-01-15T12:23:40.504Z,5.80
2023-01-15T12:26:16.597Z,5.60
2023-01-15T12:29:06.925Z,5.60
2023-01-15T12:31:48.904Z,5.50
2023-01-15T12:34:23.635Z,5.50
2023-01-15T12:37:10.068Z,5.40
2023-01-15T12:39:48.145Z,5.50
2023-01-15T12:42:39.151Z,5.40
2023-01-15T12:45:13.876Z,5.30
2023-01-15T12:48:09.169Z,5.20
2023-01-15T12:50:47.685Z,5.30
2023-01-15T12:53:22.433Z,5.20
2023-01-15T12:55:59.890Z,5.20
2023-01-15T12:58:26.728Z,5.20
2023-01-15T13:01:18.905Z,5.20
2023-01-15T13:03:56.561Z,5.30
2023-01-15T13:06:27.067Z,5.20
2023-01-15T13:09:14.572Z,5.20
2023-01-15T13:11:41.290Z,5.20
2023-01-15T13:14:15.648Z,5.30
2023-01-15T13:17:27.988Z,5.40
2023-01-15T13:20:00.921Z,5.20
2023-01-15T13:22:30.942Z,5.20
2023-01-15T13:25:25.671Z,5.20
2023-01-15T13:28:28.867Z,5.10
2023-01-15T13:30:58.628Z,5.20
2023-01-15T13:33:34.521Z,5.20
2023-01-15T13:36:15.376Z,5.20
2023-01-15T13:38:49.483Z,5.20
2023-01-15T13:41:41.847Z,5.10
2023-01-15T13:44:18.050Z,5.20
2023-01-15T13:46:46.672Z,5.30
2023-01-15T13:49:20.714Z,5.60
2023-01-15T13:51:49.846Z,5.50
2023-01-15T13:54:21.340Z,5.50
2023-01-15T13:56:48.020Z,5.80
2023-01-15T13:59:41.075Z,5.90
2023-01-15T14:02:24.725Z,6.20
2023-01-15T14:04:52.268Z,6.30
2023-01-15T14:07:40.321Z,6.30
2023-01-15T14:10:20.610Z,6.40
2023-01-15T14:13:01.964Z,6.00
2023-01-15T14:16:06.353Z,5.90
2023-01-15T14:18:44.987Z,6.00
2023-01-15T14:21:38.052Z,5.90
2023-01-15T14:24:18.064Z,5.70
2023-01-15T14:26:57.590Z,5.70
2023-01-15T14:29:52.083Z,5.60
2023-01-15T14:32:48.570Z,5.30
2023-01-15T14:35:21.756Z,5.40
2023-01-15T14:37:53.375Z,5.40
2023-01-15T14:40:35.049Z,5.30
2023-01-15T14:43:09.338Z,5.30
2023-01-15T14:45:37.648Z,5.20
2023-01-15T14:48:16.373Z,5.20
2023-01-15T14:50:44.098Z,5.20
2023-01-15T14:53:13.691Z,5.20
2023-01-15T14:55:59.307Z,5.20
2023-01-15T14:58:51.115Z,5.20
2023-01-15T15:01:34.851Z,5.10
2023-01-15T15:04:14.578Z,5.10
2023-01-15T15:06:55.369Z,5.10
2023-01-15T15:09:44.141Z,5.20
2023-01-15T15:12:37.955Z,5.20
2023-01-15T15:15:13.490Z,5.30
2023-01-15T15:18:01.029Z,5.20
2023-01-15T15:20:54.967Z,5.30
2023-01-15T15:23:51.519Z,5.20
2023-01-15T15:26:30.414Z,5.40
2023-01-15T15:29:04.693Z,5.40
2023-01-15T15:31:36.908Z,5.30
2023-01-15T15:34:06.763Z,5.50
2023-01-15T15:36:39.052Z,5.40
2023-01-15T15:39:19.257Z,5.50
2023-01-15T15:42:08.130Z,5.50
2023-01-15T15:45:08.720Z,5.50
2023-01-15T15:47:58.672Z,5.50
2023-01-15T15:50:35.416Z,5.60
2023-01-15T15:53:06.817Z,5.50
2023-01-15T15:55:45.100Z,5.50
2023-01-15T15:58:22.671Z,5.50
2023-01-15T16:00:50.768Z,5.50
2023-01-15T16:03:23.296Z,5.50
2023-01-15T16:06:01.119Z,5.40
2023-01-15T16:08:33.215Z,5.40
2023-01-15T16:11:07.105Z,5.40
2023-01-15T16:13:46.060Z,5.50
2023-01-15T16:16:14.160Z,5.30
2023-01-15T16:18:47.503Z,5.40
2023-01-15T16:21:20.107Z,5.40
2023-01-15T16:24:04.288Z,5.40
2023-01-15T16:26:38.497Z,5.30
2023-01-15T16:29:07.421Z,5.30
2023-01-15T16:31:38.240Z,5.40
2023-01-15T16:34:05.847Z,5.40
2023-01-15T16:36:42.189Z,5.30
2023-01-15T16:39:23.996Z,5.30
2023-01-15T16:41:52.294Z,5.40
2023-01-15T16:44:46.857Z,5.40
2023-01-15T16:47:28.626Z,5.40
2023-01-15T16:50:26.345Z,5.40
2023-01-15T16:52:59.852Z,5.40
2023-01-15T16:55:38.455Z,5.40
2023-01-15T16:58:14.282Z,5.40
2023-01-15T17:00:46.010Z,5.40
2023-01-15T17:03:17.541Z,5.30
2023-01-15T17:05:45.558Z,5.40
2023-01-15T17:08:26.575Z,5.30
2023-01-15T17:10:59.490Z,5.30
2023-01-15T17:13:44.056Z,5.40
2023-01-15T17:16:13.603Z,5.40
2023-01-15T17:18:40.689Z,5.40
2023-01-15T17:21:15.783Z,5.30
2023-01-15T17:23:43.002Z,5.30
2023-01-15T17:26:19.517Z,5.30
2023-01-15T17:28:46.603Z,5.30
2023-01-15T17:31:25.188Z,5.30
2023-01-15T17:33:52.680Z,5.40
2023-01-15T17:36:20.649Z,5.40
2023-01-15T17:38:47.694Z,5.40
2023-01-15T17:41:16.233Z,5.30
2023-01-15T17:43:43.564Z,5.40
2023-01-15T17:46:10.257Z,5.40
2023-01-15T17:48:37.474Z,5.40
2023-01-15T17:51:06.242Z,5.40
2023-01-15T17:53:35.950Z,5.40
2023-01-15T17:56:22.605Z,5.40
2023-01-15T17:59:07.978Z,5.50
2023-01-15T18:01:58.790Z,5.50
2023-01-15T18:04:53.992Z,5.50
2023-01-15T18:07:23.643Z,5.50
2023-01-15T18:09:53.079Z,5.50
2023-01-15T18:12:20.208Z,5.50
2023-01-15T18:14:46.863Z,5.50
2023-01-15T18:17:13.523Z,5.50
2023-01-15T18:19:40.284Z,5.50
2023-01-15T18:22:06.970Z,5.50
2023-01-15T18:24:33.604Z,5.50
2023-01-15T18:27:00.314Z,5.60
2023-01-15T18:29:27.062Z,5.60
2023-01-15T18:31:53.733Z,5.50
2023-01-15T18:34:20.388Z,5.60
2023-01-15T18:36:47.173Z,5.60
2023-01-15T18:39:14.156Z,5.60
2023-01-15T18:41:41.148Z,5.60
2023-01-15T18:44:32.809Z,5.60
2023-01-15T18:47:02.078Z,5.60
2023-01-15T18:49:29.301Z,5.60
2023-01-15T18:52:14.572Z,5.60
2023-01-15T18:54:42.167Z,5.60
2023-01-15T18:57:08.859Z,5.60
2023-01-15T18:59:35.582Z,5.60
2023-01-15T19:02:02.442Z,5.60
2023-01-15T19:04:29.207Z,5.60
2023-01-15T19:06:55.942Z,5.60
2023-01-15T19:09:24.408Z,5.60
2023-01-15T19:11:52.177Z,5.60
2023-01-15T19:14:38.610Z,5.60
2023-01-15T19:17:24.017Z,5.50
2023-01-15T19:19:50.729Z,5.50
2023-01-15T19:22:36.207Z,5.50
2023-01-15T19:25:03.159Z,5.50
2023-01-15T19:27:30.909Z,5.50
2023-01-15T19:29:58.181Z,5.50
2023-01-15T19:32:24.859Z,5.40
2023-01-15T19:34:53.016Z,5.40
2023-01-15T19:37:20.091Z,5.40
2023-01-15T19:39:46.819Z,5.40
2023-01-15T19:42:32.611Z,5.40
2023-01-15T19:45:18.183Z,5.30
2023-01-15T19:48:03.832Z,5.40
2023-01-15T19:50:43.812Z,5.40
2023-01-15T19:53:11.404Z,5.40
2023-01-15T19:55:40.844Z,5.40
2023-01-15T19:58:10.052Z,5.40
2023-01-15T20:00:38.457Z,5.40
2023-01-15T20:03:06.268Z,5.40
2023-01-15T20:05:33.026Z,5.40
2023-01-15T20:07:59.778Z,5.40
2023-01-15T20:10:28.121Z,5.40
2023-01-15T20:13:13.607Z,5.40
2023-01-15T20:15:43.769Z,5.30
2023-01-15T20:18:10.433Z,5.30
2023-01-15T20:20:38.016Z,5.30
2023-01-15T20:23:05.327Z,5.30
2023-01-15T20:25:32.357Z,5.30
2023-01-15T20:27:59.982Z,5.30
2023-01-15T20:30:28.046Z,5.30
2023-01-15T20:32:56.265Z,5.30
2023-01-15T20:35:26.328Z,5.30
2023-01-15T20:37:53.294Z,5.20
2023-01-15T20:40:22.780Z,5.30
2023-01-15T20:43:08.321Z,5.20
2023-01-15T20:45:35.462Z,5.20
2023-01-15T20:48:11.309Z,5.20
2023-01-15T20:51:01.673Z,5.30
2023-01-15T20:53:33.714Z,5.20
2023-01-15T20:56:12.896Z,5.20
2023-01-15T20:58:39.812Z,5.20
2023-01-15T21:01:10.747Z,5.10
2023-01-15T21:03:39.142Z,5.20
2023-01-15T21:06:06.995Z,5.20
2023-01-15T21:08:34.180Z,5.20
2023-01-15T21:11:01.175Z,5.10
2023-01-15T21:13:28.000Z,5.10
2023-01-15T21:15:57.101Z,5.20
2023-01-15T21:18:25.056Z,5.20
2023-01-15T21:20:51.819Z,5.10
2023-01-15T21:23:18.738Z,5.10
2023-01-15T21:25:45.576Z,5.10
2023-01-15T21:28:12.320Z,5.10
2023-01-15T21:30:44.225Z,5.10
2023-01-15T21:33:11.628Z,5.10
2023-01-15T21:35:41.479Z,5.00
2023-01-15T21:38:08.899Z,5.10
2023-01-15T21:40:39.377Z,5.00
2023-01-15T21:43:25.370Z,5.00
2023-01-15T21:45:52.415Z,5.00
2023-01-15T21:48:19.181Z,5.00
2023-01-15T21:50:45.861Z,5.00
2023-01-15T21:53:12.527Z,5.00
2023-01-15T21:55:39.330Z,5.00
2023-01-15T21:58:06.017Z,5.10
2023-01-15T22:00:32.697Z,5.10
2023-01-15T22:02:59.416Z,5.00
2023-01-15T22:05:26.156Z,4.90
2023-01-15T22:07:53.251Z,4.90
2023-01-15T22:10:20.056Z,5.00
2023-01-15T22:12:46.755Z,4.90
2023-01-15T22:15:15.659Z,4.90
2023-01-15T22:17:42.804Z,4.90
2023-01-15T22:20:10.279Z,5.00
2023-01-15T22:22:39.296Z,5.00
2023-01-15T22:25:08.634Z,4.90
2023-01-15T22:27:40.525Z,4.80
2023-01-15T22:30:13.501Z,4.70
2023-01-15T22:32:40.274Z,4.60
2023-01-15T22:35:07.782Z,4.50
2023-01-15T22:37:34.756Z,4.40
2023-01-15T22:40:01.491Z,4.40
2023-01-15T22:42:28.220Z,4.30
2023-01-15T22:44:56.079Z,4.30
2023-01-15T22:47:23.262Z,4.40
2023-01-15T22:49:50.330Z,4.40
2023-01-15T22:52:17.653Z,4.20
2023-01-15T22:54:44.819Z,4.30
2023-01-15T22:57:13.069Z,4.30
2023-01-15T22:59:39.994Z,4.40
2023-01-15T23:02:06.875Z,4.40
2023-01-15T23:04:33.870Z,4.30
2023-01-15T23:07:00.787Z,4.30
2023-01-15T23:09:27.552Z,4.40
2023-01-15T23:11:54.288Z,4.30
2023-01-15T23:14:22.217Z,4.20
2023-01-15T23:16:49.924Z,4.20
2023-01-15T23:19:17.689Z,4.20
2023-01-15T23:21:44.580Z,4.30
2023-01-15T23:24:11.625Z,4.30
2023-01-15T23:26:39.100Z,4.30
2023-01-15T23:29:06.232Z,4.40
2023-01-15T23:31:33.260Z,4.40
2023-01-15T23:34:00.574Z,4.40
2023-01-15T23:36:27.461Z,4.40
2023-01-15T23:38:54.323Z,4.40
2023-01-15T23:41:42.775Z,4.30
2023-01-15T23:44:35.806Z,4.40
2023-01-15T23:47:02.527Z,4.30
2023-01-15T23:49:29.317Z,4.30
2023-01-15T23:51:56.088Z,4.40
2023-01-15T23:54:25.458Z,4.40
2023-01-15T23:56:52.250Z,4.40
2023-01-15T23:59:19.051Z,4.30
